VTD267 UWLL-UWLL
Flight info
| Callsign | VTD267 |
|---|---|
| Flight time | 0h 14m |
| Altitude | 2500 |
| Route | RA/A025 |
| Aircraft | C172/L-SDFGY/C |
Departure
| Time | 2026-04-27 17:34 |
|---|---|
| Airport | Ulyanovsk Baratayevka Airport (UWLL) |
Arrival
| Time | 2026-04-27 17:49 |
|---|---|
| Airport | Ulyanovsk Baratayevka Airport (UWLL) |
| Time | Latitude | Longitude | Altitude | Speed | Heading |
|---|---|---|---|---|---|
| 2026-04-27 17:19 | 54.27459 | 48.23839 | 400 ft | 0 kts | 121° |
| 2026-04-27 17:28 | 54.27458 | 48.23841 | 400 ft | 0 kts | 121° |
| 2026-04-27 17:28 | 54.27501 | 48.23921 | 400 ft | 10 kts | 33° |
| 2026-04-27 17:29 | 54.27560 | 48.23981 | 400 ft | 6 kts | 22° |
| 2026-04-27 17:29 | 54.27602 | 48.23939 | 400 ft | 10 kts | 301° |
| 2026-04-27 17:29 | 54.27644 | 48.23824 | 400 ft | 13 kts | 301° |
| 2026-04-27 17:29 | 54.27684 | 48.23660 | 400 ft | 17 kts | 264° |
| 2026-04-27 17:30 | 54.27667 | 48.23512 | 400 ft | 5 kts | 258° |
| 2026-04-27 17:30 | 54.27663 | 48.23487 | 400 ft | 0 kts | 257° |
| 2026-04-27 17:32 | 54.27661 | 48.23474 | 400 ft | 4 kts | 256° |
| 2026-04-27 17:32 | 54.27648 | 48.23380 | 400 ft | 11 kts | 256° |
| 2026-04-27 17:33 | 54.27625 | 48.23228 | 403 ft | 15 kts | 243° |
| 2026-04-27 17:33 | 54.27591 | 48.23174 | 403 ft | 0 kts | 212° |
| 2026-04-27 17:33 | 54.27517 | 48.23097 | 403 ft | 37 kts | 212° |
| 2026-04-27 17:33 | 54.27180 | 48.22731 | 469 ft | 68 kts | 211° |
| 2026-04-27 17:34 | 54.26772 | 48.22268 | 667 ft | 72 kts | 213° |
| 2026-04-27 17:34 | 54.26359 | 48.21803 | 887 ft | 71 kts | 210° |
| 2026-04-27 17:34 | 54.25930 | 48.21370 | 1093 ft | 71 kts | 211° |
| 2026-04-27 17:34 | 54.25520 | 48.20937 | 1373 ft | 65 kts | 211° |
| 2026-04-27 17:35 | 54.25172 | 48.20539 | 1658 ft | 57 kts | 226° |
| 2026-04-27 17:35 | 54.25239 | 48.19784 | 1796 ft | 83 kts | 285° |
| 2026-04-27 17:35 | 54.25579 | 48.18933 | 1927 ft | 88 kts | 285° |
| 2026-04-27 17:35 | 54.25902 | 48.18126 | 2190 ft | 76 kts | 282° |
| 2026-04-27 17:36 | 54.26189 | 48.17418 | 2412 ft | 70 kts | 280° |
| 2026-04-27 17:36 | 54.26453 | 48.16680 | 2509 ft | 80 kts | 280° |
| 2026-04-27 17:36 | 54.26646 | 48.16114 | 2556 ft | 86 kts | 280° |
| 2026-04-27 17:36 | 54.27084 | 48.14862 | 2575 ft | 98 kts | 283° |
| 2026-04-27 17:37 | 54.27447 | 48.13812 | 2523 ft | 105 kts | 287° |
| 2026-04-27 17:37 | 54.27846 | 48.12763 | 2486 ft | 105 kts | 287° |
| 2026-04-27 17:37 | 54.28111 | 48.12076 | 2459 ft | 105 kts | 287° |
| 2026-04-27 17:37 | 54.28773 | 48.11428 | 2450 ft | 132 kts | 351° |
| 2026-04-27 17:38 | 54.29644 | 48.12060 | 2432 ft | 139 kts | 31° |
| 2026-04-27 17:38 | 54.30708 | 48.13221 | 2495 ft | 137 kts | 30° |
| 2026-04-27 17:38 | 54.31514 | 48.14093 | 2536 ft | 138 kts | 30° |
| 2026-04-27 17:38 | 54.32333 | 48.14980 | 2511 ft | 141 kts | 30° |
| 2026-04-27 17:39 | 54.32885 | 48.15576 | 2507 ft | 141 kts | 30° |
| 2026-04-27 17:39 | 54.33711 | 48.16469 | 2507 ft | 140 kts | 30° |
| 2026-04-27 17:39 | 54.34533 | 48.17356 | 2504 ft | 139 kts | 30° |
| 2026-04-27 17:39 | 54.35351 | 48.18236 | 2506 ft | 138 kts | 30° |
| 2026-04-27 17:40 | 54.36164 | 48.19109 | 2503 ft | 138 kts | 30° |
| 2026-04-27 17:40 | 54.36977 | 48.19980 | 2501 ft | 138 kts | 30° |
| 2026-04-27 17:40 | 54.37788 | 48.20852 | 2504 ft | 137 kts | 31° |
| 2026-04-27 17:40 | 54.38599 | 48.21724 | 2504 ft | 137 kts | 30° |
| 2026-04-27 17:41 | 54.39399 | 48.22582 | 2506 ft | 138 kts | 30° |
| 2026-04-27 17:41 | 54.40213 | 48.23456 | 2506 ft | 138 kts | 30° |
| 2026-04-27 17:41 | 54.40939 | 48.24510 | 2493 ft | 137 kts | 66° |
| 2026-04-27 17:41 | 54.40977 | 48.25951 | 2495 ft | 110 kts | 134° |
| 2026-04-27 17:42 | 54.40572 | 48.27008 | 2505 ft | 107 kts | 140° |
| 2026-04-27 17:42 | 54.40149 | 48.28074 | 2410 ft | 109 kts | 139° |
| 2026-04-27 17:42 | 54.39728 | 48.29152 | 2314 ft | 108 kts | 140° |
| 2026-04-27 17:42 | 54.39309 | 48.30234 | 2238 ft | 110 kts | 139° |
| 2026-04-27 17:43 | 54.38905 | 48.31338 | 2204 ft | 106 kts | 137° |
| 2026-04-27 17:43 | 54.38499 | 48.32398 | 2072 ft | 101 kts | 152° |
| 2026-04-27 17:43 | 54.37972 | 48.32330 | 1939 ft | 81 kts | 211° |
| 2026-04-27 17:43 | 54.37480 | 48.31981 | 1912 ft | 76 kts | 206° |
| 2026-04-27 17:44 | 54.37010 | 48.31594 | 1888 ft | 72 kts | 208° |
| 2026-04-27 17:44 | 54.36579 | 48.31232 | 1899 ft | 69 kts | 209° |
| 2026-04-27 17:44 | 54.36156 | 48.30858 | 1895 ft | 65 kts | 208° |
| 2026-04-27 17:44 | 54.35761 | 48.30523 | 1917 ft | 65 kts | 210° |
| 2026-04-27 17:45 | 54.35351 | 48.30162 | 1960 ft | 66 kts | 209° |
| 2026-04-27 17:45 | 54.34911 | 48.29791 | 1881 ft | 73 kts | 208° |
| 2026-04-27 17:45 | 54.34459 | 48.29406 | 1774 ft | 73 kts | 207° |
| 2026-04-27 17:45 | 54.33998 | 48.29004 | 1680 ft | 77 kts | 208° |
| 2026-04-27 17:46 | 54.33525 | 48.28594 | 1562 ft | 75 kts | 209° |
| 2026-04-27 17:46 | 54.33069 | 48.28189 | 1450 ft | 73 kts | 208° |
| 2026-04-27 17:46 | 54.32608 | 48.27783 | 1314 ft | 76 kts | 209° |
| 2026-04-27 17:46 | 54.32137 | 48.27351 | 1172 ft | 77 kts | 208° |
| 2026-04-27 17:47 | 54.31657 | 48.26961 | 1048 ft | 75 kts | 204° |
| 2026-04-27 17:47 | 54.31331 | 48.26700 | 918 ft | 81 kts | 205° |
| 2026-04-27 17:47 | 54.30683 | 48.26222 | 906 ft | 76 kts | 198° |
| 2026-04-27 17:47 | 54.30176 | 48.25915 | 846 ft | 79 kts | 206° |
| 2026-04-27 17:48 | 54.29690 | 48.25456 | 746 ft | 81 kts | 211° |
| 2026-04-27 17:48 | 54.29214 | 48.24949 | 667 ft | 80 kts | 212° |
| 2026-04-27 17:48 | 54.28779 | 48.24463 | 547 ft | 69 kts | 213° |
| 2026-04-27 17:48 | 54.28401 | 48.24051 | 459 ft | 61 kts | 212° |
| 2026-04-27 17:49 | 54.28048 | 48.23669 | 405 ft | 54 kts | 212° |
| 2026-04-27 17:49 | 54.27770 | 48.23369 | 402 ft | 42 kts | 211° |
| 2026-04-27 17:49 | 54.27437 | 48.23012 | 499 ft | 63 kts | 211° |
| 2026-04-27 17:49 | 54.27069 | 48.22623 | 721 ft | 62 kts | 211° |
| 2026-04-27 17:50 | 54.26706 | 48.22232 | 925 ft | 62 kts | 211° |
| 2026-04-27 17:50 | 54.25940 | 48.21420 | 1261 ft | 68 kts | 212° |
| 2026-04-27 17:50 | 54.25534 | 48.20997 | 1474 ft | 67 kts | 212° |
| 2026-04-27 17:51 | 54.25146 | 48.20596 | 1681 ft | 63 kts | 216° |
| 2026-04-27 17:51 | 54.25065 | 48.19852 | 1871 ft | 79 kts | 280° |
| 2026-04-27 17:51 | 54.25388 | 48.19054 | 2012 ft | 83 kts | 284° |
| 2026-04-27 17:51 | 54.25698 | 48.18262 | 2234 ft | 75 kts | 281° |
| 2026-04-27 17:52 | 54.25968 | 48.17526 | 2411 ft | 74 kts | 280° |
| 2026-04-27 17:52 | 54.26256 | 48.16739 | 2470 ft | 86 kts | 279° |
| 2026-04-27 17:52 | 54.26582 | 48.15840 | 2515 ft | 93 kts | 284° |
| 2026-04-27 17:52 | 54.26937 | 48.14879 | 2498 ft | 99 kts | 285° |
| 2026-04-27 17:53 | 54.27310 | 48.13878 | 2532 ft | 100 kts | 286° |
| 2026-04-27 17:53 | 54.27696 | 48.12872 | 2547 ft | 101 kts | 286° |
| 2026-04-27 17:53 | 54.28097 | 48.11855 | 2516 ft | 105 kts | 291° |
| 2026-04-27 17:53 | 54.28849 | 48.11431 | 2526 ft | 137 kts | 5° |
| 2026-04-27 17:54 | 54.29720 | 48.12219 | 2477 ft | 144 kts | 31° |
| 2026-04-27 17:54 | 54.30551 | 48.13156 | 2492 ft | 144 kts | 31° |
| 2026-04-27 17:54 | 54.31392 | 48.14108 | 2494 ft | 146 kts | 32° |
| 2026-04-27 17:54 | 54.32238 | 48.15065 | 2490 ft | 145 kts | 32° |
| 2026-04-27 17:55 | 54.33070 | 48.16011 | 2494 ft | 142 kts | 32° |
| 2026-04-27 17:55 | 54.33880 | 48.16929 | 2491 ft | 141 kts | 32° |
| 2026-04-27 17:55 | 54.34698 | 48.17853 | 2490 ft | 140 kts | 32° |
| 2026-04-27 17:55 | 54.35513 | 48.18776 | 2491 ft | 140 kts | 32° |
| 2026-04-27 17:56 | 54.36329 | 48.19669 | 2493 ft | 139 kts | 31° |
| 2026-04-27 17:56 | 54.37150 | 48.20563 | 2497 ft | 140 kts | 31° |
| 2026-04-27 17:56 | 54.37973 | 48.21462 | 2497 ft | 140 kts | 31° |
| 2026-04-27 17:56 | 54.38798 | 48.22368 | 2500 ft | 141 kts | 31° |
| 2026-04-27 17:57 | 54.39623 | 48.23279 | 2499 ft | 141 kts | 31° |
| 2026-04-27 17:57 | 54.40438 | 48.24186 | 2502 ft | 142 kts | 31° |
| 2026-04-27 17:57 | 54.41261 | 48.25112 | 2500 ft | 141 kts | 31° |
| 2026-04-27 17:57 | 54.42008 | 48.26195 | 2470 ft | 143 kts | 60° |
| 2026-04-27 17:58 | 54.42182 | 48.27694 | 2490 ft | 125 kts | 112° |
| 2026-04-27 17:58 | 54.41849 | 48.28953 | 2472 ft | 111 kts | 138° |
| 2026-04-27 17:58 | 54.41428 | 48.30090 | 2418 ft | 114 kts | 140° |
| 2026-04-27 17:58 | 54.40982 | 48.31220 | 2258 ft | 114 kts | 141° |
| 2026-04-27 17:59 | 54.40552 | 48.32349 | 2140 ft | 113 kts | 139° |
| 2026-04-27 17:59 | 54.40105 | 48.33453 | 1952 ft | 113 kts | 141° |
| 2026-04-27 17:59 | 54.39565 | 48.34077 | 1950 ft | 77 kts | 192° |
| 2026-04-27 17:59 | 54.39101 | 48.33758 | 1968 ft | 69 kts | 209° |
| 2026-04-27 18:00 | 54.38680 | 48.33393 | 1988 ft | 66 kts | 211° |
| 2026-04-27 18:00 | 54.38272 | 48.33039 | 1953 ft | 64 kts | 210° |
| 2026-04-27 18:00 | 54.37866 | 48.32676 | 1909 ft | 67 kts | 210° |
| 2026-04-27 18:00 | 54.37478 | 48.32345 | 1984 ft | 58 kts | 204° |
| 2026-04-27 18:01 | 54.37090 | 48.32117 | 1995 ft | 60 kts | 207° |
| 2026-04-27 18:01 | 54.36707 | 48.31815 | 1999 ft | 61 kts | 207° |
| 2026-04-27 18:01 | 54.36311 | 48.31510 | 2001 ft | 63 kts | 208° |
| 2026-04-27 18:01 | 54.35907 | 48.31195 | 2005 ft | 65 kts | 208° |
| 2026-04-27 18:02 | 54.35491 | 48.30869 | 2006 ft | 67 kts | 207° |
| 2026-04-27 18:02 | 54.35029 | 48.30508 | 1893 ft | 78 kts | 208° |
| 2026-04-27 18:02 | 54.34552 | 48.30095 | 1841 ft | 78 kts | 209° |
| 2026-04-27 18:02 | 54.34099 | 48.29695 | 1759 ft | 70 kts | 210° |
| 2026-04-27 18:03 | 54.33686 | 48.29314 | 1717 ft | 66 kts | 210° |
| 2026-04-27 18:03 | 54.33273 | 48.28925 | 1579 ft | 71 kts | 209° |
| 2026-04-27 18:03 | 54.32823 | 48.28514 | 1400 ft | 74 kts | 208° |
| 2026-04-27 18:03 | 54.32356 | 48.28110 | 1266 ft | 77 kts | 207° |
| 2026-04-27 18:04 | 54.31881 | 48.27685 | 1142 ft | 78 kts | 209° |
| 2026-04-27 18:04 | 54.31403 | 48.27242 | 1059 ft | 77 kts | 209° |
| 2026-04-27 18:04 | 54.30970 | 48.26766 | 990 ft | 74 kts | 217° |
| 2026-04-27 18:04 | 54.30541 | 48.26283 | 917 ft | 72 kts | 208° |
| 2026-04-27 18:05 | 54.30110 | 48.25876 | 861 ft | 72 kts | 208° |
| 2026-04-27 18:05 | 54.29675 | 48.25420 | 770 ft | 73 kts | 211° |
| 2026-04-27 18:05 | 54.29235 | 48.24945 | 678 ft | 76 kts | 212° |
| 2026-04-27 18:05 | 54.28782 | 48.24460 | 553 ft | 76 kts | 212° |
| 2026-04-27 18:06 | 54.28376 | 48.24019 | 461 ft | 63 kts | 212° |
| 2026-04-27 18:06 | 54.28040 | 48.23659 | 403 ft | 50 kts | 212° |
| 2026-04-27 18:06 | 54.27785 | 48.23381 | 401 ft | 39 kts | 212° |
| 2026-04-27 18:06 | 54.27460 | 48.23033 | 473 ft | 66 kts | 212° |
| 2026-04-27 18:07 | 54.27066 | 48.22606 | 697 ft | 66 kts | 211° |
| 2026-04-27 18:07 | 54.26679 | 48.22194 | 943 ft | 63 kts | 211° |
| 2026-04-27 18:07 | 54.26323 | 48.21813 | 1182 ft | 59 kts | 212° |
| 2026-04-27 18:07 | 54.25970 | 48.21444 | 1373 ft | 58 kts | 212° |
| 2026-04-27 18:08 | 54.25632 | 48.21095 | 1619 ft | 52 kts | 212° |
| 2026-04-27 18:08 | 54.25321 | 48.20768 | 1773 ft | 54 kts | 220° |
| 2026-04-27 18:08 | 54.25291 | 48.20077 | 1910 ft | 78 kts | 279° |
| 2026-04-27 18:08 | 54.25602 | 48.19321 | 2095 ft | 75 kts | 282° |
| 2026-04-27 18:09 | 54.25883 | 48.18603 | 2244 ft | 71 kts | 279° |
| 2026-04-27 18:09 | 54.26152 | 48.17900 | 2386 ft | 70 kts | 278° |
| 2026-04-27 18:09 | 54.26404 | 48.17208 | 2500 ft | 71 kts | 277° |
| 2026-04-27 18:09 | 54.26657 | 48.16383 | 2499 ft | 84 kts | 278° |
| 2026-04-27 18:10 | 54.26991 | 48.15458 | 2496 ft | 96 kts | 284° |
| 2026-04-27 18:10 | 54.27358 | 48.14478 | 2510 ft | 100 kts | 285° |
| 2026-04-27 18:10 | 54.27749 | 48.13493 | 2531 ft | 101 kts | 286° |
| 2026-04-27 18:10 | 54.28135 | 48.12460 | 2525 ft | 104 kts | 286° |
| 2026-04-27 18:11 | 54.28757 | 48.11681 | 2509 ft | 131 kts | 339° |
| 2026-04-27 18:11 | 54.29661 | 48.12186 | 2490 ft | 145 kts | 34° |
| 2026-04-27 18:11 | 54.30514 | 48.13144 | 2460 ft | 147 kts | 31° |
| 2026-04-27 18:11 | 54.31368 | 48.14096 | 2489 ft | 145 kts | 31° |
| 2026-04-27 18:12 | 54.32214 | 48.15036 | 2486 ft | 144 kts | 31° |
| 2026-04-27 18:12 | 54.33051 | 48.15961 | 2494 ft | 142 kts | 31° |
| 2026-04-27 18:12 | 54.33882 | 48.16865 | 2490 ft | 141 kts | 31° |
| 2026-04-27 18:12 | 54.34698 | 48.17755 | 2492 ft | 141 kts | 31° |
| 2026-04-27 18:13 | 54.35523 | 48.18655 | 2491 ft | 141 kts | 31° |
| 2026-04-27 18:13 | 54.36349 | 48.19560 | 2492 ft | 141 kts | 31° |
| 2026-04-27 18:13 | 54.37176 | 48.20472 | 2495 ft | 142 kts | 31° |
| 2026-04-27 18:13 | 54.38006 | 48.21391 | 2493 ft | 142 kts | 31° |
| 2026-04-27 18:14 | 54.38835 | 48.22322 | 2497 ft | 142 kts | 31° |
| 2026-04-27 18:14 | 54.39664 | 48.23252 | 2495 ft | 142 kts | 31° |
| 2026-04-27 18:14 | 54.40490 | 48.24183 | 2494 ft | 142 kts | 31° |
| 2026-04-27 18:14 | 54.41256 | 48.25233 | 2463 ft | 143 kts | 58° |
| 2026-04-27 18:15 | 54.41493 | 48.26765 | 2448 ft | 125 kts | 111° |
| 2026-04-27 18:15 | 54.41170 | 48.28010 | 2475 ft | 111 kts | 140° |
| 2026-04-27 18:15 | 54.40747 | 48.29109 | 2493 ft | 107 kts | 141° |
| 2026-04-27 18:15 | 54.40326 | 48.30159 | 2414 ft | 106 kts | 141° |
| 2026-04-27 18:16 | 54.39924 | 48.31225 | 2302 ft | 107 kts | 141° |
| 2026-04-27 18:16 | 54.39515 | 48.32282 | 2220 ft | 104 kts | 139° |
| 2026-04-27 18:16 | 54.39132 | 48.33346 | 2126 ft | 105 kts | 139° |
| 2026-04-27 18:16 | 54.38689 | 48.34280 | 1971 ft | 92 kts | 165° |
| 2026-04-27 18:17 | 54.38182 | 48.34257 | 1975 ft | 70 kts | 212° |
| 2026-04-27 18:17 | 54.37775 | 48.33824 | 1959 ft | 67 kts | 211° |
| 2026-04-27 18:17 | 54.37380 | 48.33401 | 1943 ft | 67 kts | 213° |
| 2026-04-27 18:17 | 54.36989 | 48.32979 | 1925 ft | 66 kts | 211° |
| 2026-04-27 18:18 | 54.36599 | 48.32594 | 1944 ft | 63 kts | 212° |
| 2026-04-27 18:18 | 54.36226 | 48.32226 | 1965 ft | 61 kts | 212° |
| 2026-04-27 18:18 | 54.35864 | 48.31866 | 1990 ft | 60 kts | 212° |
| 2026-04-27 18:18 | 54.35498 | 48.31507 | 1982 ft | 60 kts | 212° |
| 2026-04-27 18:19 | 54.35141 | 48.31146 | 1955 ft | 65 kts | 213° |
| 2026-04-27 18:19 | 54.34731 | 48.30716 | 1861 ft | 72 kts | 212° |
| 2026-04-27 18:19 | 54.34304 | 48.30256 | 1738 ft | 72 kts | 212° |
| 2026-04-27 18:19 | 54.33877 | 48.29806 | 1612 ft | 72 kts | 212° |
| 2026-04-27 18:20 | 54.33445 | 48.29368 | 1504 ft | 72 kts | 211° |
| 2026-04-27 18:20 | 54.33013 | 48.28931 | 1389 ft | 72 kts | 212° |
| 2026-04-27 18:20 | 54.32595 | 48.28485 | 1320 ft | 69 kts | 212° |
| 2026-04-27 18:20 | 54.32177 | 48.28025 | 1210 ft | 72 kts | 213° |
| 2026-04-27 18:21 | 54.31752 | 48.27555 | 1096 ft | 75 kts | 212° |
| 2026-04-27 18:21 | 54.31318 | 48.27063 | 993 ft | 75 kts | 212° |
| 2026-04-27 18:21 | 54.30891 | 48.26570 | 927 ft | 73 kts | 212° |
| 2026-04-27 18:21 | 54.30454 | 48.26180 | 884 ft | 69 kts | 204° |
| 2026-04-27 18:22 | 54.30032 | 48.25801 | 816 ft | 70 kts | 209° |
| 2026-04-27 18:22 | 54.29620 | 48.25366 | 731 ft | 69 kts | 210° |
| 2026-04-27 18:22 | 54.29218 | 48.24939 | 646 ft | 69 kts | 210° |
| 2026-04-27 18:22 | 54.28805 | 48.24489 | 584 ft | 73 kts | 211° |
| 2026-04-27 18:23 | 54.28397 | 48.24042 | 470 ft | 64 kts | 211° |
| 2026-04-27 18:23 | 54.28055 | 48.23673 | 406 ft | 51 kts | 210° |
| 2026-04-27 18:23 | 54.27796 | 48.23397 | 401 ft | 30 kts | 212° |
| 2026-04-27 18:23 | 54.27684 | 48.23278 | 402 ft | 11 kts | 203° |
| 2026-04-27 18:24 | 54.27648 | 48.23373 | 400 ft | 14 kts | 73° |
| 2026-04-27 18:24 | 54.27674 | 48.23561 | 400 ft | 17 kts | 77° |
| 2026-04-27 18:24 | 54.27659 | 48.23783 | 400 ft | 22 kts | 123° |
| 2026-04-27 18:24 | 54.27595 | 48.23961 | 400 ft | 11 kts | 121° |
| 2026-04-27 18:25 | 54.27529 | 48.23951 | 400 ft | 12 kts | 211° |
| 2026-04-27 18:25 | 54.27518 | 48.23882 | 400 ft | 8 kts | 278° |
| 2026-04-27 18:25 | 54.27481 | 48.23831 | 400 ft | 4 kts | 174° |
| 2026-04-27 18:25 | 54.27470 | 48.23852 | 400 ft | 0 kts | 120° |